Terminal Aerodrome Forecast
Issued by NWS Duluth, MN

Home | Current Version | Previous Version | Text Only | Print | Product List | Glossary On
Versions: 1 2 3 4 5 6 7 8 9 10 11 12 13 14 15 16 17 18 19 20 21 22 23 24 25 26 27 28 29 30 31 32
480
FTUS43 KDLH 231126
TAFDLH
TAF
KDLH 231126Z 2312/2412 30004KT 1SM BR OVC003
      TEMPO 2312/2315 1/2SM FG
     FM231600 30004KT 2SM BR OVC004
     FM231700 29005KT 6SM BR SCT005 OVC010
     FM232300 27004KT 6SM BR BKN015 OVC030
     FM240400 VRB03KT 1SM BR OVC005=

USA.gov is the U.S. government's official web portal to all federal, state and local government web resources and services.